sensor_id;sensor_type;location;lat;lon;timestamp;pressure;altitude;pressure_sealevel;temperature;humidity
25430;BME280;13360;48.152;-1.788;2023-03-03T00:00:33;102295.63;;;7.71;100.00
25430;BME280;13360;48.152;-1.788;2023-03-03T00:03:00;102297.16;;;7.67;100.00
25430;BME280;13360;48.152;-1.788;2023-03-03T00:05:26;102296.47;;;7.60;100.00
25430;BME280;13360;48.152;-1.788;2023-03-03T00:07:51;102302.66;;;7.67;100.00
25430;BME280;13360;48.152;-1.788;2023-03-03T00:10:17;102296.94;;;7.69;100.00
25430;BME280;13360;48.152;-1.788;2023-03-03T00:12:47;102301.00;;;7.66;100.00
25430;BME280;13360;48.152;-1.788;2023-03-03T00:15:22;102290.59;;;7.56;100.00
25430;BME280;13360;48.152;-1.788;2023-03-03T00:17:48;102305.19;;;7.57;100.00
25430;BME280;13360;48.152;-1.788;2023-03-03T00:23:20;102298.59;;;7.70;100.00
25430;BME280;13360;48.152;-1.788;2023-03-03T00:25:50;102287.38;;;7.71;100.00
25430;BME280;13360;48.152;-1.788;2023-03-03T00:30:53;102284.97;;;7.63;100.00
25430;BME280;13360;48.152;-1.788;2023-03-03T00:35:53;102278.53;;;7.57;100.00
25430;BME280;13360;48.152;-1.788;2023-03-03T00:38:18;102286.06;;;7.50;100.00
25430;BME280;13360;48.152;-1.788;2023-03-03T00:40:45;102288.59;;;7.52;100.00
25430;BME280;13360;48.152;-1.788;2023-03-03T00:43:21;102279.09;;;7.48;100.00
25430;BME280;13360;48.152;-1.788;2023-03-03T00:45:51;102282.25;;;7.51;100.00
25430;BME280;13360;48.152;-1.788;2023-03-03T00:48:24;102283.69;;;7.54;100.00
25430;BME280;13360;48.152;-1.788;2023-03-03T00:50:52;102274.84;;;7.52;100.00
25430;BME280;13360;48.152;-1.788;2023-03-03T00:53:19;102281.63;;;7.49;100.00
25430;BME280;13360;48.152;-1.788;2023-03-03T00:55:46;102271.34;;;7.45;100.00
25430;BME280;13360;48.152;-1.788;2023-03-03T00:58:12;102278.28;;;7.47;100.00
25430;BME280;13360;48.152;-1.788;2023-03-03T01:00:39;102274.69;;;7.47;100.00
25430;BME280;13360;48.152;-1.788;2023-03-03T01:03:07;102273.00;;;7.46;100.00
25430;BME280;13360;48.152;-1.788;2023-03-03T01:05:33;102266.44;;;7.47;100.00
25430;BME280;13360;48.152;-1.788;2023-03-03T01:07:59;102270.03;;;7.47;100.00
25430;BME280;13360;48.152;-1.788;2023-03-03T01:10:26;102260.34;;;7.45;100.00
25430;BME280;13360;48.152;-1.788;2023-03-03T01:12:52;102255.09;;;7.43;100.00
25430;BME280;13360;48.152;-1.788;2023-03-03T01:15:18;102252.09;;;7.45;100.00
25430;BME280;13360;48.152;-1.788;2023-03-03T01:17:43;102248.75;;;7.43;100.00
25430;BME280;13360;48.152;-1.788;2023-03-03T01:20:10;102251.50;;;7.43;100.00
25430;BME280;13360;48.152;-1.788;2023-03-03T01:22:36;102254.59;;;7.46;100.00
25430;BME280;13360;48.152;-1.788;2023-03-03T01:25:02;102256.28;;;7.47;100.00
25430;BME280;13360;48.152;-1.788;2023-03-03T01:27:29;102238.94;;;7.47;100.00
25430;BME280;13360;48.152;-1.788;2023-03-03T01:29:54;102246.34;;;7.46;100.00
25430;BME280;13360;48.152;-1.788;2023-03-03T01:32:21;102242.78;;;7.46;100.00
25430;BME280;13360;48.152;-1.788;2023-03-03T01:34:46;102220.91;;;7.39;100.00
25430;BME280;13360;48.152;-1.788;2023-03-03T01:37:12;102221.16;;;7.38;100.00
25430;BME280;13360;48.152;-1.788;2023-03-03T01:39:37;102214.47;;;7.33;100.00
25430;BME280;13360;48.152;-1.788;2023-03-03T01:42:03;102211.81;;;7.27;100.00
25430;BME280;13360;48.152;-1.788;2023-03-03T01:44:28;102235.38;;;7.34;100.00
25430;BME280;13360;48.152;-1.788;2023-03-03T01:49:28;102232.03;;;7.32;100.00
25430;BME280;13360;48.152;-1.788;2023-03-03T01:51:59;102228.22;;;7.33;100.00
25430;BME280;13360;48.152;-1.788;2023-03-03T01:54:29;102216.03;;;7.29;100.00
25430;BME280;13360;48.152;-1.788;2023-03-03T01:56:58;102208.47;;;7.25;100.00
25430;BME280;13360;48.152;-1.788;2023-03-03T01:59:32;102205.38;;;7.21;100.00
25430;BME280;13360;48.152;-1.788;2023-03-03T02:01:59;102198.78;;;7.22;100.00
25430;BME280;13360;48.152;-1.788;2023-03-03T02:04:25;102192.47;;;7.22;100.00
25430;BME280;13360;48.152;-1.788;2023-03-03T02:06:57;102183.88;;;7.18;100.00
25430;BME280;13360;48.152;-1.788;2023-03-03T02:10:04;102176.09;;;7.15;100.00
25430;BME280;13360;48.152;-1.788;2023-03-03T02:12:42;102177.66;;;7.11;100.00
25430;BME280;13360;48.152;-1.788;2023-03-03T02:15:16;102184.25;;;7.10;100.00
25430;BME280;13360;48.152;-1.788;2023-03-03T02:17:42;102172.84;;;7.07;100.00
25430;BME280;13360;48.152;-1.788;2023-03-03T02:20:19;102170.34;;;7.05;100.00
25430;BME280;13360;48.152;-1.788;2023-03-03T02:23:08;102179.31;;;7.00;100.00
25430;BME280;13360;48.152;-1.788;2023-03-03T02:28:22;102167.13;;;6.96;100.00
25430;BME280;13360;48.152;-1.788;2023-03-03T02:30:49;102166.31;;;6.96;100.00
25430;BME280;13360;48.152;-1.788;2023-03-03T02:33:14;102161.28;;;6.93;100.00
25430;BME280;13360;48.152;-1.788;2023-03-03T02:35:41;102161.28;;;6.93;100.00
25430;BME280;13360;48.152;-1.788;2023-03-03T02:38:14;102165.69;;;6.94;100.00
25430;BME280;13360;48.152;-1.788;2023-03-03T02:40:50;102154.97;;;6.92;100.00
25430;BME280;13360;48.152;-1.788;2023-03-03T02:43:19;102144.44;;;6.89;100.00
25430;BME280;13360;48.152;-1.788;2023-03-03T02:45:46;102155.78;;;6.93;100.00
25430;BME280;13360;48.152;-1.788;2023-03-03T02:48:12;102142.28;;;6.91;100.00
25430;BME280;13360;48.152;-1.788;2023-03-03T02:50:37;102136.66;;;6.86;100.00
25430;BME280;13360;48.152;-1.788;2023-03-03T02:53:03;102143.47;;;6.84;100.00
25430;BME280;13360;48.152;-1.788;2023-03-03T02:55:28;102153.38;;;6.85;100.00
25430;BME280;13360;48.152;-1.788;2023-03-03T02:57:53;102146.22;;;6.84;100.00
25430;BME280;13360;48.152;-1.788;2023-03-03T03:00:19;102139.28;;;6.81;100.00
25430;BME280;13360;48.152;-1.788;2023-03-03T03:02:45;102141.19;;;6.81;100.00
25430;BME280;13360;48.152;-1.788;2023-03-03T03:05:11;102138.94;;;6.78;100.00
25430;BME280;13360;48.152;-1.788;2023-03-03T03:07:36;102133.69;;;6.76;100.00
25430;BME280;13360;48.152;-1.788;2023-03-03T03:10:02;102131.19;;;6.75;100.00
25430;BME280;13360;48.152;-1.788;2023-03-03T03:12:27;102134.41;;;6.71;100.00
25430;BME280;13360;48.152;-1.788;2023-03-03T03:14:52;102139.88;;;6.71;100.00
25430;BME280;13360;48.152;-1.788;2023-03-03T03:17:18;102138.47;;;6.69;100.00
25430;BME280;13360;48.152;-1.788;2023-03-03T03:19:43;102152.78;;;6.71;100.00
25430;BME280;13360;48.152;-1.788;2023-03-03T03:22:08;102164.97;;;6.75;100.00
25430;BME280;13360;48.152;-1.788;2023-03-03T03:24:34;102177.25;;;6.72;100.00
25430;BME280;13360;48.152;-1.788;2023-03-03T03:26:59;102196.59;;;6.78;100.00
25430;BME280;13360;48.152;-1.788;2023-03-03T03:29:24;102209.25;;;6.79;100.00
25430;BME280;13360;48.152;-1.788;2023-03-03T03:31:50;102215.22;;;6.76;100.00
25430;BME280;13360;48.152;-1.788;2023-03-03T03:34:15;102222.16;;;6.78;100.00
25430;BME280;13360;48.152;-1.788;2023-03-03T03:36:40;102221.31;;;6.78;100.00
25430;BME280;13360;48.152;-1.788;2023-03-03T03:39:07;102219.06;;;6.75;100.00
25430;BME280;13360;48.152;-1.788;2023-03-03T03:41:32;102219.41;;;6.78;100.00
25430;BME280;13360;48.152;-1.788;2023-03-03T03:43:57;102224.91;;;6.78;100.00
25430;BME280;13360;48.152;-1.788;2023-03-03T03:46:23;102218.22;;;6.74;100.00
25430;BME280;13360;48.152;-1.788;2023-03-03T03:48:48;102234.69;;;6.74;100.00
25430;BME280;13360;48.152;-1.788;2023-03-03T03:51:13;102237.19;;;6.76;100.00
25430;BME280;13360;48.152;-1.788;2023-03-03T03:53:39;102247.13;;;6.77;100.00
25430;BME280;13360;48.152;-1.788;2023-03-03T03:56:04;102244.84;;;6.73;100.00
25430;BME280;13360;48.152;-1.788;2023-03-03T03:58:30;102241.03;;;6.75;100.00
25430;BME280;13360;48.152;-1.788;2023-03-03T04:01:01;102231.34;;;6.72;100.00
25430;BME280;13360;48.152;-1.788;2023-03-03T04:03:27;102226.34;;;6.69;100.00
25430;BME280;13360;48.152;-1.788;2023-03-03T04:05:52;102214.13;;;6.65;100.00
25430;BME280;13360;48.152;-1.788;2023-03-03T04:08:19;102209.94;;;6.62;100.00
25430;BME280;13360;48.152;-1.788;2023-03-03T04:10:44;102202.78;;;6.61;100.00
25430;BME280;13360;48.152;-1.788;2023-03-03T04:13:10;102207.19;;;6.62;100.00
25430;BME280;13360;48.152;-1.788;2023-03-03T04:15:35;102203.84;;;6.60;100.00
25430;BME280;13360;48.152;-1.788;2023-03-03T04:18:00;102204.44;;;6.62;100.00
25430;BME280;13360;48.152;-1.788;2023-03-03T04:20:26;102195.59;;;6.60;100.00
25430;BME280;13360;48.152;-1.788;2023-03-03T04:22:51;102197.88;;;6.63;100.00
25430;BME280;13360;48.152;-1.788;2023-03-03T04:25:18;102187.97;;;6.62;100.00
25430;BME280;13360;48.152;-1.788;2023-03-03T04:27:43;102183.06;;;6.64;100.00
25430;BME280;13360;48.152;-1.788;2023-03-03T04:30:10;102177.00;;;6.62;100.00
25430;BME280;13360;48.152;-1.788;2023-03-03T04:32:36;102171.50;;;6.62;100.00
25430;BME280;13360;48.152;-1.788;2023-03-03T04:35:01;102177.81;;;6.63;100.00
25430;BME280;13360;48.152;-1.788;2023-03-03T04:37:27;102166.47;;;6.59;100.00
25430;BME280;13360;48.152;-1.788;2023-03-03T04:39:52;102164.81;;;6.58;100.00
25430;BME280;13360;48.152;-1.788;2023-03-03T04:42:17;102172.56;;;6.61;100.00
25430;BME280;13360;48.152;-1.788;2023-03-03T04:44:43;102168.16;;;6.60;100.00
25430;BME280;13360;48.152;-1.788;2023-03-03T04:47:08;102177.47;;;6.59;100.00
25430;BME280;13360;48.152;-1.788;2023-03-03T04:49:34;102182.81;;;6.54;100.00
25430;BME280;13360;48.152;-1.788;2023-03-03T04:51:59;102196.91;;;6.58;100.00
25430;BME280;13360;48.152;-1.788;2023-03-03T04:54:24;102205.41;;;6.56;100.00
25430;BME280;13360;48.152;-1.788;2023-03-03T04:56:50;102215.31;;;6.57;100.00
25430;BME280;13360;48.152;-1.788;2023-03-03T04:59:15;102232.00;;;6.56;100.00
25430;BME280;13360;48.152;-1.788;2023-03-03T05:01:40;102226.75;;;6.54;100.00
25430;BME280;13360;48.152;-1.788;2023-03-03T05:04:06;102224.47;;;6.51;100.00
25430;BME280;13360;48.152;-1.788;2023-03-03T05:06:32;102224.13;;;6.48;100.00
25430;BME280;13360;48.152;-1.788;2023-03-03T05:08:57;102234.25;;;6.47;100.00
25430;BME280;13360;48.152;-1.788;2023-03-03T05:11:22;102239.34;;;6.43;100.00
25430;BME280;13360;48.152;-1.788;2023-03-03T05:13:48;102245.06;;;6.42;100.00
25430;BME280;13360;48.152;-1.788;2023-03-03T05:16:13;102257.97;;;6.41;100.00
25430;BME280;13360;48.152;-1.788;2023-03-03T05:18:38;102252.25;;;6.43;100.00
25430;BME280;13360;48.152;-1.788;2023-03-03T05:21:04;102254.97;;;6.43;100.00
25430;BME280;13360;48.152;-1.788;2023-03-03T05:23:29;102264.16;;;6.37;100.00
25430;BME280;13360;48.152;-1.788;2023-03-03T05:25:55;102261.41;;;6.37;100.00
25430;BME280;13360;48.152;-1.788;2023-03-03T05:28:21;102269.88;;;6.35;100.00
25430;BME280;13360;48.152;-1.788;2023-03-03T05:30:46;102266.91;;;6.37;100.00
25430;BME280;13360;48.152;-1.788;2023-03-03T05:33:13;102276.81;;;6.38;100.00
25430;BME280;13360;48.152;-1.788;2023-03-03T05:35:39;102280.38;;;6.38;100.00
25430;BME280;13360;48.152;-1.788;2023-03-03T05:38:05;102274.06;;;6.38;100.00
25430;BME280;13360;48.152;-1.788;2023-03-03T05:40:30;102282.06;;;6.39;100.00
25430;BME280;13360;48.152;-1.788;2023-03-03T05:42:56;102278.25;;;6.40;100.00
25430;BME280;13360;48.152;-1.788;2023-03-03T05:45:22;102276.56;;;6.39;100.00
25430;BME280;13360;48.152;-1.788;2023-03-03T05:47:49;102281.47;;;6.37;100.00
25430;BME280;13360;48.152;-1.788;2023-03-03T05:50:16;102280.84;;;6.35;100.00
25430;BME280;13360;48.152;-1.788;2023-03-03T05:52:42;102281.69;;;6.36;100.00
25430;BME280;13360;48.152;-1.788;2023-03-03T05:55:08;102285.50;;;6.35;100.00
25430;BME280;13360;48.152;-1.788;2023-03-03T05:57:33;102289.78;;;6.31;100.00
25430;BME280;13360;48.152;-1.788;2023-03-03T06:00:00;102279.28;;;6.28;100.00
25430;BME280;13360;48.152;-1.788;2023-03-03T06:02:26;102287.34;;;6.23;100.00
25430;BME280;13360;48.152;-1.788;2023-03-03T06:04:51;102291.75;;;6.24;100.00
25430;BME280;13360;48.152;-1.788;2023-03-03T06:07:16;102297.72;;;6.21;100.00
25430;BME280;13360;48.152;-1.788;2023-03-03T06:09:42;102297.94;;;6.19;100.00
25430;BME280;13360;48.152;-1.788;2023-03-03T06:12:07;102310.97;;;6.24;100.00
25430;BME280;13360;48.152;-1.788;2023-03-03T06:14:32;102315.72;;;6.17;100.00
25430;BME280;13360;48.152;-1.788;2023-03-03T06:16:58;102319.13;;;6.12;100.00
25430;BME280;13360;48.152;-1.788;2023-03-03T06:19:23;102318.44;;;6.17;100.00
25430;BME280;13360;48.152;-1.788;2023-03-03T06:21:49;102323.34;;;6.15;100.00
25430;BME280;13360;48.152;-1.788;2023-03-03T06:24:14;102330.88;;;6.01;100.00
25430;BME280;13360;48.152;-1.788;2023-03-03T06:26:40;102340.06;;;5.88;100.00
25430;BME280;13360;48.152;-1.788;2023-03-03T06:29:06;102356.50;;;5.88;100.00
25430;BME280;13360;48.152;-1.788;2023-03-03T06:31:31;102363.03;;;5.94;100.00
25430;BME280;13360;48.152;-1.788;2023-03-03T06:33:56;102366.13;;;5.97;100.00
25430;BME280;13360;48.152;-1.788;2023-03-03T06:36:23;102386.13;;;6.04;100.00
25430;BME280;13360;48.152;-1.788;2023-03-03T06:38:49;102382.94;;;6.07;100.00
25430;BME280;13360;48.152;-1.788;2023-03-03T06:41:14;102388.66;;;6.06;100.00
25430;BME280;13360;48.152;-1.788;2023-03-03T06:43:40;102398.31;;;6.08;100.00
25430;BME280;13360;48.152;-1.788;2023-03-03T06:46:05;102400.72;;;5.98;100.00
25430;BME280;13360;48.152;-1.788;2023-03-03T06:48:32;102409.66;;;5.94;100.00
25430;BME280;13360;48.152;-1.788;2023-03-03T06:50:59;102415.34;;;5.67;100.00
25430;BME280;13360;48.152;-1.788;2023-03-03T06:53:26;102419.69;;;5.75;100.00
25430;BME280;13360;48.152;-1.788;2023-03-03T06:55:51;102429.94;;;5.86;100.00
25430;BME280;13360;48.152;-1.788;2023-03-03T06:58:21;102432.69;;;5.86;100.00
25430;BME280;13360;48.152;-1.788;2023-03-03T07:00:54;102435.44;;;5.86;100.00
25430;BME280;13360;48.152;-1.788;2023-03-03T07:03:32;102444.47;;;5.93;100.00
25430;BME280;13360;48.152;-1.788;2023-03-03T07:05:58;102440.66;;;5.94;100.00
25430;BME280;13360;48.152;-1.788;2023-03-03T07:08:24;102458.50;;;6.03;100.00
25430;BME280;13360;48.152;-1.788;2023-03-03T07:10:51;102453.44;;;6.07;100.00
25430;BME280;13360;48.152;-1.788;2023-03-03T07:15:42;102456.19;;;6.00;100.00
25430;BME280;13360;48.152;-1.788;2023-03-03T07:20:58;102464.31;;;6.14;100.00
25430;BME280;13360;48.152;-1.788;2023-03-03T07:23:37;102467.47;;;6.17;100.00
25430;BME280;13360;48.152;-1.788;2023-03-03T07:26:09;102471.88;;;6.18;100.00
25430;BME280;13360;48.152;-1.788;2023-03-03T07:28:40;102481.34;;;6.22;100.00
25430;BME280;13360;48.152;-1.788;2023-03-03T07:31:19;102466.78;;;6.22;100.00
25430;BME280;13360;48.152;-1.788;2023-03-03T07:33:50;102484.31;;;6.21;100.00
25430;BME280;13360;48.152;-1.788;2023-03-03T07:36:29;102492.53;;;6.21;100.00
25430;BME280;13360;48.152;-1.788;2023-03-03T07:39:00;102498.22;;;6.26;100.00
25430;BME280;13360;48.152;-1.788;2023-03-03T07:41:30;102504.84;;;6.36;100.00
25430;BME280;13360;48.152;-1.788;2023-03-03T07:44:18;102513.47;;;6.40;100.00
25430;BME280;13360;48.152;-1.788;2023-03-03T07:46:48;102518.69;;;6.48;100.00
25430;BME280;13360;48.152;-1.788;2023-03-03T07:49:36;102515.75;;;6.43;100.00
25430;BME280;13360;48.152;-1.788;2023-03-03T07:53:01;102528.25;;;6.39;100.00
25430;BME280;13360;48.152;-1.788;2023-03-03T07:55:20;102535.88;;;6.37;100.00
25430;BME280;13360;48.152;-1.788;2023-03-03T07:57:50;102542.59;;;6.41;100.00
25430;BME280;13360;48.152;-1.788;2023-03-03T08:08:29;102575.00;;;6.76;100.00
25430;BME280;13360;48.152;-1.788;2023-03-03T08:10:59;102570.03;;;6.66;100.00
25430;BME280;13360;48.152;-1.788;2023-03-03T08:18:30;102601.47;;;7.13;100.00
25430;BME280;13360;48.152;-1.788;2023-03-03T08:21:22;102613.53;;;7.12;100.00
25430;BME280;13360;48.152;-1.788;2023-03-03T08:23:48;102599.44;;;7.02;100.00
25430;BME280;13360;48.152;-1.788;2023-03-03T08:26:18;102622.84;;;7.29;100.00
25430;BME280;13360;48.152;-1.788;2023-03-03T08:28:45;102626.88;;;7.45;100.00
25430;BME280;13360;48.152;-1.788;2023-03-03T08:31:10;102604.22;;;7.31;100.00
25430;BME280;13360;48.152;-1.788;2023-03-03T08:33:36;102634.88;;;7.47;100.00
25430;BME280;13360;48.152;-1.788;2023-03-03T08:36:02;102634.13;;;7.58;100.00
25430;BME280;13360;48.152;-1.788;2023-03-03T08:38:28;102636.72;;;7.53;100.00
25430;BME280;13360;48.152;-1.788;2023-03-03T08:40:53;102642.75;;;7.61;100.00
25430;BME280;13360;48.152;-1.788;2023-03-03T08:43:19;102637.94;;;7.75;100.00
25430;BME280;13360;48.152;-1.788;2023-03-03T08:45:48;102642.50;;;7.81;100.00
25430;BME280;13360;48.152;-1.788;2023-03-03T08:48:15;102652.38;;;8.01;100.00
25430;BME280;13360;48.152;-1.788;2023-03-03T08:50:41;102638.03;;;7.99;100.00
25430;BME280;13360;48.152;-1.788;2023-03-03T08:53:07;102636.84;;;8.06;100.00
25430;BME280;13360;48.152;-1.788;2023-03-03T08:55:32;102636.13;;;8.11;100.00
25430;BME280;13360;48.152;-1.788;2023-03-03T08:57:58;102616.75;;;8.06;100.00
25430;BME280;13360;48.152;-1.788;2023-03-03T09:00:24;102632.72;;;8.27;100.00
25430;BME280;13360;48.152;-1.788;2023-03-03T09:02:51;102638.31;;;8.50;100.00
25430;BME280;13360;48.152;-1.788;2023-03-03T09:05:19;102628.03;;;8.58;100.00
25430;BME280;13360;48.152;-1.788;2023-03-03T09:07:45;102567.31;;;8.41;100.00
25430;BME280;13360;48.152;-1.788;2023-03-03T09:10:15;102564.91;;;8.44;100.00
25430;BME280;13360;48.152;-1.788;2023-03-03T09:12:46;102552.00;;;8.57;100.00
25430;BME280;13360;48.152;-1.788;2023-03-03T09:15:24;102542.38;;;8.71;100.00
25430;BME280;13360;48.152;-1.788;2023-03-03T09:17:51;102528.75;;;8.52;100.00
25430;BME280;13360;48.152;-1.788;2023-03-03T09:20:21;102538.09;;;8.75;100.00
25430;BME280;13360;48.152;-1.788;2023-03-03T09:22:48;102535.91;;;9.00;100.00
25430;BME280;13360;48.152;-1.788;2023-03-03T09:25:34;102523.47;;;9.26;100.00
25430;BME280;13360;48.152;-1.788;2023-03-03T09:28:01;102508.59;;;9.39;100.00
25430;BME280;13360;48.152;-1.788;2023-03-03T09:30:36;102503.84;;;9.51;100.00
25430;BME280;13360;48.152;-1.788;2023-03-03T09:33:20;102500.28;;;9.67;100.00
25430;BME280;13360;48.152;-1.788;2023-03-03T09:35:50;102474.88;;;9.65;100.00
25430;BME280;13360;48.152;-1.788;2023-03-03T09:43:39;102457.78;;;9.52;100.00
25430;BME280;13360;48.152;-1.788;2023-03-03T09:57:13;102426.28;;;9.98;100.00
25430;BME280;13360;48.152;-1.788;2023-03-03T09:59:54;102415.59;;;9.68;100.00
25430;BME280;13360;48.152;-1.788;2023-03-03T10:02:55;102404.28;;;9.53;100.00
25430;BME280;13360;48.152;-1.788;2023-03-03T10:08:20;102391.16;;;9.14;100.00
25430;BME280;13360;48.152;-1.788;2023-03-03T10:11:18;102380.66;;;8.83;100.00
25430;BME280;13360;48.152;-1.788;2023-03-03T10:13:58;102433.91;;;9.29;100.00
25430;BME280;13360;48.152;-1.788;2023-03-03T10:19:09;102390.63;;;10.13;100.00
25430;BME280;13360;48.152;-1.788;2023-03-03T10:21:46;102374.06;;;10.30;100.00
25430;BME280;13360;48.152;-1.788;2023-03-03T10:24:26;102371.03;;;10.53;100.00
25430;BME280;13360;48.152;-1.788;2023-03-03T10:32:34;102385.06;;;10.68;100.00
25430;BME280;13360;48.152;-1.788;2023-03-03T10:54:41;102305.84;;;10.30;100.00
25430;BME280;13360;48.152;-1.788;2023-03-03T10:57:20;102303.66;;;10.32;100.00
25430;BME280;13360;48.152;-1.788;2023-03-03T11:00:07;102301.34;;;10.24;100.00
25430;BME280;13360;48.152;-1.788;2023-03-03T11:05:32;102302.97;;;10.03;100.00
25430;BME280;13360;48.152;-1.788;2023-03-03T11:08:11;102300.22;;;10.03;100.00
25430;BME280;13360;48.152;-1.788;2023-03-03T11:24:10;102285.47;;;10.36;100.00
25430;BME280;13360;48.152;-1.788;2023-03-03T11:26:52;102286.19;;;10.27;100.00
25430;BME280;13360;48.152;-1.788;2023-03-03T11:36:55;102301.19;;;10.58;100.00
25430;BME280;13360;48.152;-1.788;2023-03-03T11:39:25;102271.78;;;10.47;100.00
25430;BME280;13360;48.152;-1.788;2023-03-03T11:44:34;102274.59;;;10.52;100.00
25430;BME280;13360;48.152;-1.788;2023-03-03T11:49:59;102292.19;;;10.67;100.00
25430;BME280;13360;48.152;-1.788;2023-03-03T11:52:49;102270.22;;;10.56;100.00
25430;BME280;13360;48.152;-1.788;2023-03-03T12:00:40;102260.91;;;10.62;100.00
25430;BME280;13360;48.152;-1.788;2023-03-03T12:06:24;102250.63;;;10.57;100.00
25430;BME280;13360;48.152;-1.788;2023-03-03T12:09:13;102250.94;;;10.61;100.00
25430;BME280;13360;48.152;-1.788;2023-03-03T12:12:03;102255.13;;;10.63;100.00
25430;BME280;13360;48.152;-1.788;2023-03-03T12:17:39;102242.03;;;10.54;100.00
25430;BME280;13360;48.152;-1.788;2023-03-03T12:23:21;102233.22;;;10.57;100.00
25430;BME280;13360;48.152;-1.788;2023-03-03T12:25:57;102244.34;;;10.62;100.00
25430;BME280;13360;48.152;-1.788;2023-03-03T12:28:27;102225.75;;;10.57;100.00
25430;BME280;13360;48.152;-1.788;2023-03-03T12:31:00;102215.34;;;10.64;100.00
25430;BME280;13360;48.152;-1.788;2023-03-03T12:36:40;102231.19;;;10.74;100.00
25430;BME280;13360;48.152;-1.788;2023-03-03T12:47:41;102206.25;;;10.69;100.00
25430;BME280;13360;48.152;-1.788;2023-03-03T12:58:23;102201.97;;;10.83;100.00
25430;BME280;13360;48.152;-1.788;2023-03-03T13:08:41;102173.28;;;10.89;100.00
25430;BME280;13360;48.152;-1.788;2023-03-03T13:11:26;102177.94;;;10.84;100.00
25430;BME280;13360;48.152;-1.788;2023-03-03T13:14:09;102167.44;;;10.86;100.00
25430;BME280;13360;48.152;-1.788;2023-03-03T13:16:44;102168.59;;;10.90;100.00
25430;BME280;13360;48.152;-1.788;2023-03-03T13:27:57;102147.91;;;10.97;100.00
25430;BME280;13360;48.152;-1.788;2023-03-03T13:30:26;102155.66;;;11.00;100.00
25430;BME280;13360;48.152;-1.788;2023-03-03T13:35:45;102163.22;;;11.10;100.00
25430;BME280;13360;48.152;-1.788;2023-03-03T13:38:20;102164.03;;;11.11;100.00
25430;BME280;13360;48.152;-1.788;2023-03-03T13:43:25;102136.34;;;11.06;100.00
25430;BME280;13360;48.152;-1.788;2023-03-03T13:46:16;102152.16;;;11.10;100.00
25430;BME280;13360;48.152;-1.788;2023-03-03T13:54:11;102136.56;;;10.99;100.00
25430;BME280;13360;48.152;-1.788;2023-03-03T14:02:28;102133.06;;;11.09;100.00
25430;BME280;13360;48.152;-1.788;2023-03-03T14:08:05;102132.81;;;11.15;100.00
25430;BME280;13360;48.152;-1.788;2023-03-03T14:10:46;102120.66;;;11.16;100.00
25430;BME280;13360;48.152;-1.788;2023-03-03T14:15:57;102118.97;;;11.10;100.00
25430;BME280;13360;48.152;-1.788;2023-03-03T14:18:35;102115.94;;;11.17;100.00
25430;BME280;13360;48.152;-1.788;2023-03-03T14:21:18;102149.22;;;11.27;100.00
25430;BME280;13360;48.152;-1.788;2023-03-03T14:24:30;102134.00;;;11.24;100.00
25430;BME280;13360;48.152;-1.788;2023-03-03T14:26:55;102119.63;;;11.27;100.00
25430;BME280;13360;48.152;-1.788;2023-03-03T14:31:59;102114.94;;;11.28;100.00
25430;BME280;13360;48.152;-1.788;2023-03-03T14:37:00;102104.72;;;11.34;100.00
25430;BME280;13360;48.152;-1.788;2023-03-03T14:39:34;102136.00;;;11.39;100.00
25430;BME280;13360;48.152;-1.788;2023-03-03T14:42:01;102128.81;;;11.43;100.00
25430;BME280;13360;48.152;-1.788;2023-03-03T14:44:35;102104.44;;;11.35;100.00
25430;BME280;13360;48.152;-1.788;2023-03-03T14:47:12;102100.00;;;11.34;100.00
25430;BME280;13360;48.152;-1.788;2023-03-03T14:49:41;102103.31;;;11.31;100.00
25430;BME280;13360;48.152;-1.788;2023-03-03T14:54:36;102102.53;;;11.41;100.00
25430;BME280;13360;48.152;-1.788;2023-03-03T14:57:14;102104.19;;;11.42;100.00
25430;BME280;13360;48.152;-1.788;2023-03-03T15:02:30;102086.75;;;11.41;100.00
25430;BME280;13360;48.152;-1.788;2023-03-03T15:07:41;102093.44;;;11.45;100.00
25430;BME280;13360;48.152;-1.788;2023-03-03T15:10:08;102090.63;;;11.35;100.00
25430;BME280;13360;48.152;-1.788;2023-03-03T15:12:35;102082.31;;;11.35;100.00
25430;BME280;13360;48.152;-1.788;2023-03-03T15:17:43;102091.16;;;11.37;100.00
25430;BME280;13360;48.152;-1.788;2023-03-03T15:20:37;102102.50;;;11.30;100.00
25430;BME280;13360;48.152;-1.788;2023-03-03T15:31:14;102084.78;;;11.32;100.00
25430;BME280;13360;48.152;-1.788;2023-03-03T15:34:16;102092.53;;;11.35;100.00
25430;BME280;13360;48.152;-1.788;2023-03-03T15:36:51;102092.00;;;11.33;100.00
25430;BME280;13360;48.152;-1.788;2023-03-03T15:39:40;102091.44;;;11.36;100.00
25430;BME280;13360;48.152;-1.788;2023-03-03T15:42:13;102085.88;;;11.30;100.00
25430;BME280;13360;48.152;-1.788;2023-03-03T15:55:11;102100.81;;;11.24;100.00
25430;BME280;13360;48.152;-1.788;2023-03-03T16:03:39;102107.16;;;11.25;100.00
25430;BME280;13360;48.152;-1.788;2023-03-03T16:12:38;102090.53;;;11.20;100.00
25430;BME280;13360;48.152;-1.788;2023-03-03T16:20:22;102107.94;;;11.15;100.00
25430;BME280;13360;48.152;-1.788;2023-03-03T16:23:27;102114.03;;;11.17;100.00
25430;BME280;13360;48.152;-1.788;2023-03-03T16:37:01;102140.00;;;11.16;100.00
25430;BME280;13360;48.152;-1.788;2023-03-03T16:39:49;102154.69;;;11.22;100.00
25430;BME280;13360;48.152;-1.788;2023-03-03T16:42:30;102133.91;;;11.14;100.00
25430;BME280;13360;48.152;-1.788;2023-03-03T16:52:58;102144.94;;;11.09;100.00
25430;BME280;13360;48.152;-1.788;2023-03-03T16:55:35;102159.91;;;11.13;100.00
25430;BME280;13360;48.152;-1.788;2023-03-03T17:06:01;102204.22;;;10.86;100.00
25430;BME280;13360;48.152;-1.788;2023-03-03T17:08:57;102221.97;;;10.95;100.00
25430;BME280;13360;48.152;-1.788;2023-03-03T17:35:27;102259.44;;;10.54;100.00
25430;BME280;13360;48.152;-1.788;2023-03-03T17:38:52;102257.97;;;10.47;100.00